Time;durP1;ratioP1;P1;durP2;ratioP2;P2;SDS_P1;SDS_P2;PMS_P1;PMS_P2;Temp;Humidity;BMP_temperature;BMP_pressure;BME280_temperature;BME280_humidity;BME280_pressure;Samples;Min_cycle;Max_cycle;Signal;HPM_P1;HPM_P2
2022/08/05 00:01:34;;;;;;;24.60;13.00;;;;;;;20.85;70.42;100371.86;124084;1102;102932;-75
2022/08/05 00:04:04;;;;;;;27.23;13.80;;;;;;;20.84;69.46;100370.98;124213;1099;104227;-75
2022/08/05 00:06:33;;;;;;;23.53;13.93;;;;;;;20.86;70.34;100366.52;124164;1102;104362;-75
2022/08/05 00:09:02;;;;;;;22.97;13.80;;;;;;;20.88;69.80;100372.74;124242;1099;104191;-75
2022/08/05 00:11:31;;;;;;;22.83;13.53;;;;;;;20.90;70.96;100375.40;124203;1099;104325;-74
2022/08/05 00:14:00;;;;;;;24.63;14.53;;;;;;;20.86;69.47;100376.31;124188;1099;102746;-74
2022/08/05 00:16:29;;;;;;;24.73;13.63;;;;;;;20.80;70.57;100375.47;124146;1099;104076;-74
2022/08/05 00:19:02;;;;;;;24.37;13.77;;;;;;;20.76;69.62;100376.38;124214;1099;104172;-73
2022/08/05 00:21:31;;;;;;;24.43;13.80;;;;;;;20.71;70.56;100366.64;124249;1099;104191;-74
2022/08/05 00:24:02;;;;;;;24.27;14.20;;;;;;;20.67;70.12;100362.25;124230;1099;104193;-74
2022/08/05 00:26:31;;;;;;;24.17;14.03;;;;;;;20.64;70.07;100365.78;124159;1102;102554;-74
2022/08/05 00:29:00;;;;;;;23.13;12.23;;;;;;;20.62;71.17;100367.59;124153;1101;104342;-74
2022/08/05 00:31:29;;;;;;;23.27;13.57;;;;;;;20.60;70.83;100370.27;124153;1099;104168;-74
2022/08/05 00:33:59;;;;;;;20.43;12.20;;;;;;;20.61;70.50;100366.68;124184;1102;104232;-74
2022/08/05 00:36:28;;;;;;;22.97;12.50;;;;;;;20.59;70.25;100356.95;124278;1102;105784;-73
2022/08/05 00:38:57;;;;;;;19.83;12.07;;;;;;;20.60;71.18;100359.60;124189;1099;104169;-74
2022/08/05 00:41:31;;;;;;;21.33;11.87;;;;;;;20.56;71.48;100357.84;124168;1099;104175;-74
2022/08/05 00:44:00;;;;;;;20.37;11.73;;;;;;;20.54;70.90;100353.44;124204;1099;102787;-74
2022/08/05 00:46:29;;;;;;;22.40;12.50;;;;;;;20.48;71.97;100352.56;124169;1099;102158;-74
2022/08/05 00:48:58;;;;;;;23.33;11.53;;;;;;;20.46;71.65;100353.50;124163;1099;103871;-74
2022/08/05 00:51:28;;;;;;;19.90;11.53;;;;;;;20.45;72.09;100355.25;124195;1098;104163;-74
2022/08/05 00:53:57;;;;;;;20.83;12.03;;;;;;;20.43;71.55;100350.85;124203;1099;104236;-74
2022/08/05 00:56:28;;;;;;;21.73;12.20;;;;;;;20.41;71.11;100348.20;124192;1099;102813;-74
2022/08/05 00:58:58;;;;;;;23.90;12.50;;;;;;;20.38;72.40;100350.89;124139;1099;104219;-74
2022/08/05 01:01:27;;;;;;;21.03;12.37;;;;;;;20.36;72.63;100351.78;124211;1099;104226;-74
2022/08/05 01:03:56;;;;;;;21.83;11.80;;;;;;;20.34;71.93;100353.58;124158;1099;104248;-74
2022/08/05 01:06:24;;;;;;;21.87;12.10;;;;;;;20.30;72.50;100344.70;124160;1099;102790;-74
2022/08/05 01:08:54;;;;;;;20.77;11.97;;;;;;;20.28;72.62;100342.05;124190;1099;104233;-74
2022/08/05 01:11:26;;;;;;;22.53;12.27;;;;;;;20.27;71.85;100342.05;124186;1102;103333;-74
2022/08/05 01:14:05;;;;;;;25.17;12.53;;;;;;;20.24;72.10;100342.08;124245;1099;104249;-74
2022/08/05 01:16:42;;;;;;;21.90;12.50;;;;;;;20.23;72.48;100340.33;124168;1099;104226;-74
2022/08/05 01:19:23;;;;;;;21.47;12.63;;;;;;;20.19;72.22;100338.56;124192;1099;102155;-74
2022/08/05 01:22:17;;;;;;;23.43;12.73;;;;;;;20.18;71.91;100351.02;124151;1102;104245;-74
2022/08/05 01:24:59;;;;;;;21.57;12.90;;;;;;;20.17;72.10;100343.03;124205;1098;104195;-74
2022/08/05 01:27:48;;;;;;;23.20;13.03;;;;;;;20.17;72.13;100337.70;124197;1099;102858;-73
2022/08/05 01:30:17;;;;;;;23.10;13.57;;;;;;;20.18;72.99;100344.78;124185;1102;102867;-74
2022/08/05 01:32:50;;;;;;;22.47;12.57;;;;;;;20.16;73.00;100342.13;124259;1099;102755;-74
2022/08/05 01:35:26;;;;;;;23.63;12.80;;;;;;;20.15;73.24;100342.13;124199;1099;104172;-74
2022/08/05 01:37:58;;;;;;;22.50;12.57;;;;;;;20.15;73.25;100336.80;124174;1098;104211;-74
2022/08/05 01:40:30;;;;;;;21.70;13.00;;;;;;;20.15;73.40;100345.70;124170;1099;104402;-74
2022/08/05 01:43:02;;;;;;;24.00;13.20;;;;;;;20.13;72.79;100346.59;124163;1099;104207;-74
2022/08/05 01:45:33;;;;;;;21.50;13.03;;;;;;;20.10;72.64;100342.16;124159;1099;102671;-73
2022/08/05 01:48:03;;;;;;;22.97;11.97;;;;;;;20.09;73.56;100341.28;124183;1099;104227;-73
2022/08/05 01:50:37;;;;;;;26.10;13.70;;;;;;;20.07;73.99;100340.42;125044;1099;104211;-74
2022/08/05 01:53:15;;;;;;;22.07;13.23;;;;;;;20.05;73.53;100341.31;124182;1099;104347;-74
2022/08/05 01:55:46;;;;;;;24.53;12.73;;;;;;;20.02;72.96;100339.54;124268;1099;104251;-74
2022/08/05 01:58:17;;;;;;;20.40;11.63;;;;;;;19.99;73.75;100334.27;124259;1098;104072;-74
2022/08/05 02:00:51;;;;;;;21.43;12.60;;;;;;;19.99;73.02;100333.36;124167;1099;104240;-74
2022/08/05 02:03:24;;;;;;;23.23;12.67;;;;;;;19.98;73.99;100335.14;124226;1099;102663;-74
2022/08/05 02:05:55;;;;;;;21.73;12.60;;;;;;;19.98;73.16;100337.80;124228;1099;104233;-74
2022/08/05 02:08:24;;;;;;;20.97;12.60;;;;;;;19.96;73.25;100344.93;124173;1099;104181;-73
2022/08/05 02:11:00;;;;;;;23.50;13.57;;;;;;;19.97;74.27;100340.48;124228;1099;104251;-73
2022/08/05 02:13:37;;;;;;;19.90;13.10;;;;;;;19.97;73.57;100348.47;124179;1099;104241;-74
2022/08/05 02:16:15;;;;;;;22.73;13.17;;;;;;;19.97;74.76;100346.68;124169;1099;104245;-73
2022/08/05 02:18:49;;;;;;;20.93;12.20;;;;;;;19.94;74.07;100352.02;124184;1099;102788;-74
2022/08/05 02:21:24;;;;;;;19.87;11.70;;;;;;;19.92;75.05;100351.16;124233;1099;104620;-73
2022/08/05 02:23:58;;;;;;;21.30;12.17;;;;;;;19.90;74.75;100350.29;124175;1099;104367;-74
2022/08/05 02:26:35;;;;;;;24.00;12.03;;;;;;;19.88;74.02;100352.95;124251;1098;104354;-74
2022/08/05 02:29:06;;;;;;;22.10;11.60;;;;;;;19.84;74.69;100353.85;124188;1099;101875;-74
2022/08/05 02:31:39;;;;;;;21.97;11.93;;;;;;;19.85;74.79;100363.63;124428;1099;104225;-74
2022/08/05 02:34:13;;;;;;;19.37;11.40;;;;;;;19.83;74.91;100361.84;124683;1098;104235;-74
2022/08/05 02:36:49;;;;;;;21.40;12.37;;;;;;;19.82;75.31;100360.06;124239;1102;104203;-73
2022/08/05 02:39:22;;;;;;;21.27;12.30;;;;;;;19.83;75.40;100361.84;124634;1099;104294;-74
2022/08/05 02:41:52;;;;;;;23.37;13.20;;;;;;;19.81;74.97;100363.64;124367;1099;104169;-74
2022/08/05 02:44:25;;;;;;;19.47;12.07;;;;;;;19.78;74.82;100355.67;124210;1099;104169;-74
2022/08/05 02:46:56;;;;;;;20.07;12.27;;;;;;;19.78;75.46;100361.87;124132;1102;104081;-73
2022/08/05 02:49:26;;;;;;;20.93;12.43;;;;;;;19.77;74.85;100362.75;124195;1099;104267;-73
2022/08/05 02:52:00;;;;;;;22.50;13.07;;;;;;;19.77;74.97;100364.53;124413;1099;104166;-73
2022/08/05 02:54:30;;;;;;;25.55;12.47;;;;;;;19.78;75.19;100366.31;124693;1099;104361;-73
2022/08/05 02:57:01;;;;;;;22.63;12.87;;;;;;;19.78;75.98;100371.64;124740;1099;103110;-74
2022/08/05 02:59:32;;;;;;;21.33;12.13;;;;;;;19.79;75.45;100378.72;124674;1099;104509;-74
2022/08/05 03:02:02;;;;;;;22.25;12.35;;;;;;;19.80;75.78;100380.50;124407;1099;104242;-73
2022/08/05 03:04:32;;;;;;;22.30;12.40;;;;;;;19.79;75.70;100390.27;124191;1099;102969;-74
2022/08/05 03:07:01;;;;;;;20.13;12.33;;;;;;;19.81;76.07;100387.60;124212;1099;104192;-73
2022/08/05 03:09:31;;;;;;;21.03;12.17;;;;;;;19.80;75.99;100392.02;124217;1099;103747;-74
2022/08/05 03:12:01;;;;;;;24.30;12.93;;;;;;;19.81;76.10;100387.60;124310;1099;104636;-74
2022/08/05 03:14:30;;;;;;;23.73;14.53;;;;;;;19.82;76.13;100390.26;124679;1099;104293;-74
2022/08/05 03:17:00;;;;;;;26.10;14.63;;;;;;;19.81;75.60;100391.14;124646;1099;104188;-74
2022/08/05 03:19:29;;;;;;;23.97;14.13;;;;;;;19.83;75.55;100396.45;124695;1099;102165;-73
2022/08/05 03:21:58;;;;;;;23.63;13.97;;;;;;;19.82;76.04;100392.02;124486;1099;104248;-73
2022/08/05 03:24:30;;;;;;;23.10;14.20;;;;;;;19.81;76.75;100391.14;124202;1099;104089;-73
2022/08/05 03:27:00;;;;;;;23.50;14.03;;;;;;;19.81;76.36;100392.92;124172;1099;104303;-73
2022/08/05 03:29:29;;;;;;;24.43;14.60;;;;;;;19.79;76.63;100389.36;124127;1102;104291;-73
2022/08/05 03:31:59;;;;;;;23.23;14.10;;;;;;;19.79;75.97;100394.69;124338;1099;104239;-74
2022/08/05 03:34:28;;;;;;;23.10;14.03;;;;;;;19.78;76.84;100399.14;124685;1099;104201;-74
2022/08/05 03:36:57;;;;;;;24.50;14.53;;;;;;;19.78;76.37;100396.47;124625;1099;104328;-74
2022/08/05 03:39:26;;;;;;;24.83;14.90;;;;;;;19.82;76.54;100394.67;124501;1099;102547;-74
2022/08/05 03:41:56;;;;;;;28.90;14.87;;;;;;;19.82;76.63;100394.67;124130;1099;104647;-74
2022/08/05 03:44:25;;;;;;;26.03;15.40;;;;;;;19.83;76.89;100391.13;124189;1102;102765;-74
2022/08/05 03:46:54;;;;;;;25.40;14.90;;;;;;;19.85;76.94;100397.33;124172;1099;104428;-73
2022/08/05 03:49:23;;;;;;;26.37;14.50;;;;;;;19.88;77.16;100389.33;124147;1099;104329;-73
2022/08/05 03:51:57;;;;;;;25.47;15.37;;;;;;;19.90;77.04;100393.77;124209;1099;102785;-73
2022/08/05 03:54:35;;;;;;;24.50;15.00;;;;;;;19.93;76.72;100387.55;124234;1099;111895;-74
2022/08/05 03:57:05;;;;;;;25.90;15.43;;;;;;;19.96;76.66;100390.20;124652;1099;104175;-74
2022/08/05 03:59:41;;;;;;;24.80;15.13;;;;;;;19.99;77.10;100384.86;124658;1099;103215;-74
2022/08/05 04:02:12;;;;;;;25.20;14.63;;;;;;;20.01;77.31;100392.84;124644;1099;104172;-74
2022/08/05 04:04:42;;;;;;;24.27;14.73;;;;;;;20.04;77.35;100384.80;124221;1099;104248;-74
2022/08/05 04:07:12;;;;;;;23.33;14.27;;;;;;;20.08;77.45;100389.23;124232;1099;104238;-74
2022/08/05 04:09:41;;;;;;;23.30;14.43;;;;;;;20.13;77.08;100394.55;124291;1099;104162;-74
2022/08/05 04:12:10;;;;;;;22.03;14.47;;;;;;;20.17;77.44;100385.66;124189;1098;104166;-74
2022/08/05 04:14:40;;;;;;;26.37;15.60;;;;;;;20.22;77.33;100386.50;124633;1099;102825;-75
2022/08/05 04:17:10;;;;;;;22.77;14.20;;;;;;;20.23;77.82;100386.49;124662;1098;104163;-75
2022/08/05 04:19:43;;;;;;;24.93;14.97;;;;;;;20.29;77.49;100388.25;124708;1099;104191;-75
2022/08/05 04:22:14;;;;;;;24.25;13.80;;;;;;;20.34;77.54;100390.89;124725;1099;104264;-74
2022/08/05 04:24:45;;;;;;;22.80;14.20;;;;;;;20.39;77.93;100387.27;124215;1099;104179;-74
2022/08/05 04:27:14;;;;;;;23.37;13.37;;;;;;;20.41;77.72;100388.17;124174;1099;104473;-75
2022/08/05 04:29:43;;;;;;;25.43;14.53;;;;;;;20.47;77.46;100390.80;124202;1099;104176;-74
2022/08/05 04:32:12;;;;;;;24.27;14.40;;;;;;;20.53;77.81;100395.18;124178;1099;104217;-75
2022/08/05 04:34:41;;;;;;;25.97;15.23;;;;;;;20.58;76.83;100390.69;124549;1099;104238;-74
2022/08/05 04:37:11;;;;;;;25.90;14.77;;;;;;;20.65;76.94;100394.26;124669;1099;104242;-75
2022/08/05 04:39:40;;;;;;;24.40;14.70;;;;;;;20.71;77.42;100385.30;124642;1099;104012;-74
2022/08/05 04:42:10;;;;;;;27.63;15.27;;;;;;;20.75;77.83;100395.94;124689;1099;104239;-75
2022/08/05 04:44:39;;;;;;;23.50;14.43;;;;;;;20.80;77.13;100394.14;124337;1099;104225;-75
2022/08/05 04:47:08;;;;;;;23.90;13.13;;;;;;;20.86;76.71;100387.85;124209;1099;104185;-74
2022/08/05 04:49:39;;;;;;;24.10;14.40;;;;;;;20.91;77.11;100387.81;124234;1099;104208;-74
2022/08/05 04:52:10;;;;;;;;;;;;;;;20.97;77.42;100388.66;124211;1102;104185;-75
2022/08/05 04:54:39;;;;;;;22.77;13.60;;;;;;;21.03;76.62;100395.70;124168;1102;104187;-74
2022/08/05 04:57:20;;;;;;;22.27;12.67;;;;;;;21.08;77.17;100393.00;124170;1098;104255;-74
2022/08/05 04:59:49;;;;;;;22.87;13.07;;;;;;;21.13;76.70;100385.83;124184;1099;102835;-75
2022/08/05 05:02:18;;;;;;;21.80;12.93;;;;;;;21.19;77.31;100381.34;124257;1099;104165;-75
2022/08/05 05:04:47;;;;;;;24.70;12.80;;;;;;;21.23;76.60;100382.19;124191;1099;104377;-75
2022/08/05 05:07:17;;;;;;;20.10;11.83;;;;;;;21.27;77.58;100375.02;124213;1102;104085;-75
2022/08/05 05:09:46;;;;;;;21.97;13.37;;;;;;;21.31;77.45;100380.31;124171;1102;104221;-75
2022/08/05 05:12:15;;;;;;;23.13;13.83;;;;;;;21.37;76.99;100374.03;124172;1100;104195;-75
2022/08/05 05:14:44;;;;;;;21.85;12.10;;;;;;;21.40;76.73;100376.67;124473;1099;104246;-75
2022/08/05 05:17:14;;;;;;;23.37;12.43;;;;;;;21.45;77.65;100376.63;124652;1099;104169;-75
2022/08/05 05:19:44;;;;;;;22.10;11.67;;;;;;;21.50;76.95;100380.15;124700;1099;104175;-75
2022/08/05 05:22:13;;;;;;;20.00;12.17;;;;;;;21.53;76.44;100383.69;124737;1098;103632;-75
2022/08/05 05:24:42;;;;;;;22.25;12.25;;;;;;;21.59;77.01;100380.05;124495;1099;104243;-75
2022/08/05 05:27:12;;;;;;;20.83;12.13;;;;;;;21.64;76.57;100380.87;124207;1099;104312;-75
2022/08/05 05:29:42;;;;;;;22.00;11.97;;;;;;;21.72;76.80;100378.11;124180;1099;104307;-75
2022/08/05 05:32:12;;;;;;;20.83;11.47;;;;;;;21.79;76.43;100370.92;124183;1099;102865;-74
2022/08/05 05:34:42;;;;;;;22.97;11.67;;;;;;;21.85;76.75;100371.72;124314;1099;104290;-75
2022/08/05 05:37:13;;;;;;;20.57;12.07;;;;;;;21.90;76.67;100371.66;124701;1099;104281;-75
2022/08/05 05:39:43;;;;;;;22.67;11.27;;;;;;;21.97;76.93;100370.69;124170;1102;104292;-76
2022/08/05 05:42:12;;;;;;;20.60;11.53;;;;;;;22.04;76.90;100377.70;124410;1099;104169;-76
2022/08/05 05:44:54;;;;;;;19.37;11.30;;;;;;;22.12;76.39;100377.59;124188;1102;104198;-76
2022/08/05 05:47:27;;;;;;;20.63;11.37;;;;;;;22.20;75.80;100381.03;124246;1099;104204;-76
2022/08/05 05:49:56;;;;;;;20.02;10.88;;;;;;;22.29;76.30;100376.48;124461;1099;104242;-81
2022/08/05 05:52:25;;;;;;;19.37;10.60;;;;;;;22.35;75.81;100365.74;124495;1099;102811;-77
2022/08/05 05:54:54;;;;;;;18.60;10.93;;;;;;;22.42;76.35;100373.64;124521;1099;102284;-76
2022/08/05 05:57:25;;;;;;;22.20;11.13;;;;;;;22.49;75.90;100363.73;124861;1099;102595;-77
2022/08/05 05:59:58;;;;;;;18.57;10.27;;;;;;;22.56;75.75;100365.41;124999;1099;104158;-76
2022/08/05 06:02:30;;;;;;;19.27;11.38;;;;;;;22.61;75.58;100363.54;124573;1099;104166;-76
2022/08/05 06:05:03;;;;;;;18.17;11.07;;;;;;;22.68;75.51;100363.44;124277;1102;102005;-77
2022/08/05 06:07:32;;;;;;;19.23;10.58;;;;;;;22.74;75.51;100363.34;125062;1102;104172;-80
2022/08/05 06:10:01;;;;;;;21.00;10.70;;;;;;;22.82;75.34;100368.56;124913;1101;104311;-76
2022/08/05 06:13:05;;;;;;;21.50;11.13;;;;;;;22.87;75.43;100362.20;125064;1102;104188;-80
2022/08/05 06:15:37;;;;;;;20.00;11.17;;;;;;;22.96;74.93;100361.17;125112;1102;103045;-79
2022/08/05 06:18:08;;;;;;;20.07;11.10;;;;;;;23.04;75.12;100356.56;125097;1099;103764;-82
2022/08/05 06:20:37;;;;;;;18.87;11.13;;;;;;;23.08;74.69;100357.41;125112;1099;103316;-77
2022/08/05 06:23:10;;;;;;;22.20;10.85;;;;;;;23.15;74.62;100359.08;124272;1102;103797;-77
2022/08/05 06:25:50;;;;;;;21.10;11.67;;;;;;;23.23;74.55;100364.28;124963;1102;104178;-77
2022/08/05 06:28:20;;;;;;;20.73;11.57;;;;;;;23.30;74.14;100365.95;124968;1102;101771;-76
2022/08/05 06:30:52;;;;;;;20.20;11.20;;;;;;;23.37;74.11;100369.38;124223;1100;104425;-76
2022/08/05 06:33:29;;;;;;;21.97;11.83;;;;;;;23.44;74.21;100365.69;125496;1102;104323;-76
2022/08/05 06:35:59;;;;;;;21.30;11.33;;;;;;;23.53;73.78;100365.51;124471;1099;104235;-75
2022/08/05 06:38:28;;;;;;;20.50;11.33;;;;;;;23.65;73.77;100365.27;124742;1099;104166;-77
2022/08/05 06:40:58;;;;;;;20.57;11.03;;;;;;;23.79;73.33;100362.27;124476;1099;102970;-77
2022/08/05 06:43:31;;;;;;;21.60;11.50;;;;;;;23.91;73.53;100354.94;124516;1099;104194;-77
2022/08/05 06:46:01;;;;;;;25.15;11.53;;;;;;;24.10;72.75;100366.13;124458;1099;104242;-82
2022/08/05 06:48:33;;;;;;;20.47;11.13;;;;;;;24.23;73.13;100359.55;124506;1099;104171;-80
2022/08/05 06:51:04;;;;;;;21.20;10.37;;;;;;;24.33;72.97;100362.92;124992;1099;104230;-78
2022/08/05 06:53:34;;;;;;;23.37;11.23;;;;;;;24.41;71.71;100367.17;125055;1099;101771;-78
2022/08/05 06:56:09;;;;;;;19.20;9.93;;;;;;;24.49;71.83;100352.70;125446;1098;103655;-76
2022/08/05 06:58:48;;;;;;;17.43;9.87;;;;;;;24.54;71.10;100361.52;124619;1099;104178;-77
2022/08/05 07:01:24;;;;;;;16.97;10.07;;;;;;;24.65;70.90;100351.46;125618;1099;104194;-78
2022/08/05 07:03:54;;;;;;;18.57;10.50;;;;;;;24.80;71.19;100351.98;125169;1099;102239;-79
2022/08/05 07:06:26;;;;;;;24.13;11.07;;;;;;;24.93;70.65;100358.78;124995;1099;102819;-78
2022/08/05 07:09:10;;;;;;;19.33;10.57;;;;;;;25.01;69.96;100350.53;124973;1099;104374;-78
2022/08/05 07:11:47;;;;;;;21.63;11.00;;;;;;;25.06;70.31;100349.50;124930;1099;104241;-78
2022/08/05 07:17:06;;;;;;;16.43;9.67;;;;;;;25.18;69.58;100345.62;125106;1099;104059;-80
2022/08/05 07:19:39;;;;;;;16.97;9.33;;;;;;;25.28;69.43;100351.61;125137;1102;102438;-78
2022/08/05 07:22:31;;;;;;;;;;;;;;;;;;;;;
2022/08/05 07:25:08;;;;;;;18.70;10.17;;;;;;;25.46;68.10;100355.59;124968;1099;104233;-78
2022/08/05 07:27:49;;;;;;;18.50;9.70;;;;;;;25.60;68.11;100352.52;125033;1102;104095;-78
2022/08/05 07:30:20;;;;;;;17.03;9.97;;;;;;;25.81;68.12;100354.58;125005;1099;101818;-80
2022/08/05 07:32:50;;;;;;;21.07;9.17;;;;;;;25.96;67.42;100357.73;125189;1099;104304;-79
2022/08/05 07:35:27;;;;;;;15.53;9.30;;;;;;;26.12;67.29;100348.31;125046;1099;104188;-79
2022/08/05 07:38:07;;;;;;;20.12;9.83;;;;;;;26.32;67.06;100345.00;108412;1099;10001614;-82
2022/08/05 07:40:53;;;;;;;16.83;9.23;;;;;;;26.51;66.27;100334.52;125073;1099;104238;-80
2022/08/05 07:43:39;;;;;;;;;;;;;;;26.58;66.62;100335.18;125116;1099;102269;-80
2022/08/05 07:46:23;;;;;;;15.60;8.60;;;;;;;26.62;66.33;100339.53;124992;1099;104232;-79
2022/08/05 07:49:00;;;;;;;15.43;9.00;;;;;;;26.58;65.37;100337.00;125026;1099;103118;-78
2022/08/05 07:51:45;;;;;;;17.40;9.67;;;;;;;26.53;64.57;100345.22;124967;1099;104182;-78
2022/08/05 07:54:25;;;;;;;17.13;9.10;;;;;;;26.46;64.92;100330.20;124969;1099;104159;-78
2022/08/05 07:57:03;;;;;;;19.10;9.50;;;;;;;26.55;64.07;100341.56;124953;1098;103209;-77
2022/08/05 07:59:49;;;;;;;16.90;9.30;;;;;;;26.60;64.05;100340.51;125004;1099;101930;-79
2022/08/05 08:02:31;;;;;;;15.07;9.10;;;;;;;26.67;64.27;100339.42;125174;1099;102098;-78
2022/08/05 08:05:34;;;;;;;18.45;9.53;;;;;;;26.80;63.49;100337.18;125052;1099;102787;-78
2022/08/05 08:08:09;;;;;;;17.27;9.20;;;;;;;26.94;63.26;100339.40;126221;1098;104233;-78
2022/08/05 08:10:39;;;;;;;20.50;9.10;;;;;;;27.02;62.83;100340.00;125137;1102;104060;-82
2022/08/05 08:13:15;;;;;;;15.13;8.90;;;;;;;27.12;62.93;100338.76;125244;1099;103240;-81
2022/08/05 08:15:47;;;;;;;18.50;9.83;;;;;;;27.32;62.21;100342.59;125179;1102;104363;-81
2022/08/05 08:18:19;;;;;;;16.57;8.87;;;;;;;27.57;61.62;100345.27;125261;1099;104622;-79
2022/08/05 08:20:54;;;;;;;16.47;8.73;;;;;;;27.72;61.04;100338.39;125150;1102;103490;-79
2022/08/05 08:23:25;;;;;;;15.10;8.13;;;;;;;27.89;59.72;100341.34;125025;1102;104236;-77
2022/08/05 08:25:57;;;;;;;15.70;8.77;;;;;;;27.99;59.71;100339.20;124978;1102;104165;-78
2022/08/05 08:28:34;;;;;;;15.63;7.87;;;;;;;28.17;58.73;100336.70;124948;1102;104486;-78
2022/08/05 08:31:04;;;;;;;16.17;8.93;;;;;;;28.38;58.81;100340.36;125039;1102;104226;-78
2022/08/05 08:33:36;;;;;;;14.23;8.20;;;;;;;28.41;58.08;100338.41;124384;1102;104166;-77
2022/08/05 08:36:12;;;;;;;15.93;8.47;;;;;;;28.41;57.78;100337.54;124272;1102;104326;-78
2022/08/05 08:38:55;;;;;;;12.13;7.53;;;;;;;28.44;57.48;100340.11;125487;1102;104208;-78
2022/08/05 08:41:27;;;;;;;11.17;6.43;;;;;;;28.49;56.73;100327.30;125028;1102;102794;-77
2022/08/05 08:44:01;;;;;;;12.67;7.63;;;;;;;28.40;55.92;100339.34;125155;1102;102284;-77
2022/08/05 08:46:33;;;;;;;14.13;7.57;;;;;;;28.25;55.92;100332.77;125039;1102;105303;-77
2022/08/05 08:49:10;;;;;;;21.23;8.03;;;;;;;28.20;55.81;100331.19;125011;1102;104345;-77
2022/08/05 08:52:01;;;;;;;13.73;7.70;;;;;;;28.20;55.78;100331.19;124990;1102;104223;-77
2022/08/05 08:54:33;;;;;;;13.87;7.70;;;;;;;28.38;55.99;100329.57;124974;1102;104319;-76
2022/08/05 08:57:12;;;;;;;11.40;6.83;;;;;;;28.48;55.60;100315.61;125037;1099;104172;-77
2022/08/05 08:59:44;;;;;;;13.93;6.53;;;;;;;28.68;55.13;100314.80;125303;1099;103712;-78
2022/08/05 09:02:18;;;;;;;10.13;6.53;;;;;;;28.82;53.85;100324.14;125078;1102;104237;-78
2022/08/05 09:04:50;;;;;;;10.53;6.67;;;;;;;28.97;53.72;100323.48;125668;1099;104181;-78
2022/08/05 09:07:21;;;;;;;10.95;5.55;;;;;;;28.96;52.45;100318.15;124981;1099;101869;-78
2022/08/05 09:10:00;;;;;;;8.77;5.83;;;;;;;29.04;52.46;100318.68;125321;1099;104175;-80
2022/08/05 09:12:48;;;;;;;9.43;6.30;;;;;;;29.11;51.47;100321.98;124958;1102;104877;-79
2022/08/05 09:15:25;;;;;;;11.10;6.33;;;;;;;29.17;51.56;100316.30;124992;1099;104181;-78
2022/08/05 09:17:54;;;;;;;11.33;6.77;;;;;;;29.10;52.19;100317.55;124949;1099;104166;-77
2022/08/05 09:20:25;;;;;;;11.27;6.70;;;;;;;29.04;51.81;100319.55;125089;1101;104230;-77
2022/08/05 09:23:20;;;;;;;10.27;6.97;;;;;;;29.10;51.59;100322.95;124318;1102;104171;-78
2022/08/05 09:26:10;;;;;;;12.47;6.60;;;;;;;29.23;51.77;100324.17;124962;1102;104376;-79
2022/08/05 09:28:46;;;;;;;13.77;7.03;;;;;;;29.20;50.97;100325.20;125037;1102;102477;-78
2022/08/05 09:31:24;;;;;;;10.67;7.03;;;;;;;29.36;51.27;100313.71;124801;1102;104424;-78
2022/08/05 09:33:54;;;;;;;11.40;7.27;;;;;;;29.52;50.91;100305.77;125012;1102;104214;-78
2022/08/05 09:36:25;;;;;;;13.17;7.40;;;;;;;29.68;50.87;100314.90;124931;1102;104284;-77
2022/08/05 09:39:00;;;;;;;11.73;7.60;;;;;;;29.67;50.38;100312.27;124961;1102;104199;-78
2022/08/05 09:41:32;;;;;;;11.83;7.30;;;;;;;29.68;49.91;100306.79;124899;1102;109267;-78
2022/08/05 09:44:03;;;;;;;11.13;7.10;;;;;;;29.65;50.25;100304.23;125336;1102;101806;-78
2022/08/05 09:46:34;;;;;;;12.13;7.90;;;;;;;29.60;49.40;100300.88;124985;1102;104293;-77
2022/08/05 09:49:30;;;;;;;12.30;7.80;;;;;;;29.66;49.06;100300.59;124968;1101;104238;-78
2022/08/05 09:52:22;;;;;;;12.37;7.80;;;;;;;29.84;49.36;100298.89;125015;1102;118193;-78
2022/08/05 09:55:00;;;;;;;14.27;8.60;;;;;;;29.94;49.12;100302.02;124367;1102;102654;-78
2022/08/05 09:57:41;;;;;;;14.17;8.28;;;;;;;29.83;48.57;100301.66;121664;1099;10001732;-78
2022/08/05 10:00:17;;;;;;;12.53;8.20;;;;;;;29.79;48.74;100303.58;124313;1099;104176;-77
2022/08/05 10:02:48;;;;;;;12.83;7.53;;;;;;;29.67;48.42;100293.34;124843;1099;104243;-78
2022/08/05 10:05:20;;;;;;;11.50;7.63;;;;;;;29.57;48.36;100303.72;124872;1099;104267;-78
2022/08/05 10:07:53;;;;;;;13.90;8.43;;;;;;;29.62;48.61;100298.10;124371;1102;104172;-77
2022/08/05 10:10:27;;;;;;;14.30;8.10;;;;;;;29.74;48.66;100297.52;124393;1099;102788;-78
2022/08/05 10:12:59;;;;;;;12.60;8.10;;;;;;;29.81;48.64;100298.13;124436;1099;104118;-78
2022/08/05 10:15:32;;;;;;;15.53;8.73;;;;;;;29.75;48.23;100304.70;124581;1098;103976;-78
2022/08/05 10:18:14;;;;;;;11.10;7.43;;;;;;;29.69;48.09;100304.98;124336;1099;104248;-79
2022/08/05 10:20:50;;;;;;;14.90;7.87;;;;;;;29.61;48.24;100308.05;124573;1099;104217;-78
2022/08/05 10:23:24;;;;;;;9.83;7.10;;;;;;;29.60;48.11;100306.28;124665;1099;104235;-77
2022/08/05 10:25:55;;;;;;;14.13;7.90;;;;;;;29.70;47.84;100302.20;124992;1099;102396;-78
2022/08/05 10:28:26;;;;;;;14.47;6.70;;;;;;;29.84;47.93;100297.98;124595;1102;102697;-79
2022/08/05 10:30:55;;;;;;;11.70;7.70;;;;;;;29.93;47.83;100290.33;124315;1099;103553;-77
2022/08/05 10:33:31;;;;;;;11.03;7.43;;;;;;;30.04;47.76;100291.63;124311;1102;104232;-79
2022/08/05 10:36:03;;;;;;;12.80;7.37;;;;;;;30.14;47.14;100279.41;124619;1099;104191;-78
2022/08/05 10:38:42;;;;;;;13.20;7.40;;;;;;;30.28;46.76;100284.14;125083;1099;104165;-77
2022/08/05 10:41:30;;;;;;;12.33;7.17;;;;;;;30.22;46.65;100279.89;124990;1099;103096;-77
2022/08/05 10:44:05;;;;;;;10.37;7.10;;;;;;;30.29;46.72;100278.65;124341;1099;104287;-77
2022/08/05 10:46:52;;;;;;;11.93;7.17;;;;;;;30.28;46.33;100274.17;124368;1102;104313;-77
2022/08/05 10:49:22;;;;;;;11.27;6.90;;;;;;;30.27;45.93;100275.13;124329;1102;104242;-77
2022/08/05 10:51:56;;;;;;;11.47;6.87;;;;;;;30.25;45.88;100270.76;124577;1099;104163;-77
2022/08/05 10:54:49;;;;;;;10.47;7.13;;;;;;;30.11;45.91;100276.86;124335;1099;101793;-77
2022/08/05 10:57:27;;;;;;;11.47;6.53;;;;;;;29.99;45.36;100275.61;124407;1098;104166;-80
2022/08/05 11:00:15;;;;;;;13.93;6.67;;;;;;;30.00;44.91;100280.08;124426;1099;103918;-79
2022/08/05 11:03:09;;;;;;;13.53;7.10;;;;;;;30.06;44.44;100268.97;124490;1099;104166;-78
2022/08/05 11:06:01;;;;;;;11.87;6.97;;;;;;;30.10;44.48;100269.67;124968;1099;104168;-78
2022/08/05 11:08:59;;;;;;;12.90;6.70;;;;;;;30.23;44.48;100261.82;125584;1099;103699;-78
2022/08/05 11:11:37;;;;;;;10.77;6.40;;;;;;;30.41;44.59;100260.93;125629;1099;104285;-78
2022/08/05 11:14:09;;;;;;;9.55;6.60;;;;;;;30.41;44.56;100257.36;116291;1099;10001932;-79
2022/08/05 11:16:39;;;;;;;11.97;6.87;;;;;;;30.41;44.51;100255.52;125028;1099;104233;-78
2022/08/05 11:19:45;;;;;;;10.23;6.90;;;;;;;30.49;44.60;100247.00;124288;1102;102618;-78
2022/08/05 11:22:42;;;;;;;11.17;7.07;;;;;;;30.53;44.58;100236.92;125035;1099;104226;-78
2022/08/05 11:26:02;;;;;;;13.60;6.93;;;;;;;30.57;44.80;100244.77;125650;1098;102268;-78
2022/08/05 11:28:49;;;;;;;11.37;7.27;;;;;;;30.40;44.21;100237.55;124957;1102;104073;-78
2022/08/05 11:31:31;;;;;;;18.70;7.77;;;;;;;30.21;43.98;100247.50;124986;1099;104232;-78
2022/08/05 11:34:08;;;;;;;17.17;7.47;;;;;;;30.05;44.00;100253.67;125070;1099;104185;-82